createdAt,value
2019-03-13T00:02:43.715Z,138.40
2019-03-13T00:05:24.943Z,133.33
2019-03-13T00:08:05.230Z,135.27
2019-03-13T00:10:51.059Z,138.53
2019-03-13T00:13:35.447Z,144.13
2019-03-13T00:16:18.749Z,136.63
2019-03-13T00:19:00.251Z,139.93
2019-03-13T00:21:49.053Z,147.28
2019-03-13T00:24:30.315Z,146.07
2019-03-13T00:27:11.474Z,141.67
2019-03-13T00:29:51.461Z,131.23
2019-03-13T00:32:33.157Z,137.03
2019-03-13T00:35:18.551Z,155.50
2019-03-13T00:38:00.509Z,146.70
2019-03-13T00:40:44.416Z,134.30
2019-03-13T00:43:24.752Z,134.60
2019-03-13T00:46:07.293Z,134.70
2019-03-13T00:48:51.394Z,136.90
2019-03-13T00:51:31.021Z,132.57
2019-03-13T00:54:13.226Z,142.35
2019-03-13T00:56:56.495Z,129.50
2019-03-13T00:59:42.965Z,172.47
2019-03-13T01:02:40.893Z,138.40
2019-03-13T01:05:26.906Z,132.73
2019-03-13T01:08:07.553Z,137.77
2019-03-13T01:10:49.880Z,133.73
2019-03-13T01:13:34.195Z,145.97
2019-03-13T01:16:18.441Z,148.07
2019-03-13T01:18:59.273Z,148.40
2019-03-13T01:21:42.329Z,154.17
2019-03-13T01:24:31.146Z,136.73
2019-03-13T01:27:36.345Z,131.50
2019-03-13T01:30:25.331Z,132.57
2019-03-13T01:33:14.187Z,128.83
2019-03-13T01:36:06.093Z,141.70
2019-03-13T01:38:50.042Z,147.32
2019-03-13T01:41:30.194Z,141.87
2019-03-13T01:44:14.614Z,132.93
2019-03-13T01:46:54.979Z,137.77
2019-03-13T01:49:42.641Z,146.33
2019-03-13T01:52:23.649Z,142.63
2019-03-13T01:55:08.348Z,127.97
2019-03-13T01:57:48.457Z,127.70
2019-03-13T02:00:32.607Z,144.02
2019-03-13T02:03:14.095Z,139.07
2019-03-13T02:06:07.998Z,117.83
2019-03-13T02:08:53.557Z,132.87
2019-03-13T02:11:42.000Z,138.70
2019-03-13T02:14:34.405Z,148.90
2019-03-13T02:17:30.909Z,125.77
2019-03-13T02:20:12.898Z,139.77
2019-03-13T02:22:57.988Z,142.07
2019-03-13T02:25:49.812Z,128.83
2019-03-13T02:28:38.126Z,161.23
2019-03-13T02:31:23.421Z,125.40
2019-03-13T02:34:10.063Z,125.93
2019-03-13T02:37:04.980Z,123.47
2019-03-13T02:39:56.631Z,124.92
2019-03-13T02:42:43.267Z,131.87
2019-03-13T02:45:22.881Z,123.43
2019-03-13T02:48:04.189Z,141.20
2019-03-13T02:50:53.301Z,144.77
2019-03-13T02:53:37.319Z,138.70
2019-03-13T02:56:31.068Z,134.83
2019-03-13T02:59:17.171Z,133.57
2019-03-13T03:02:34.071Z,131.50
2019-03-13T03:05:23.553Z,132.47
2019-03-13T03:08:07.959Z,117.80
2019-03-13T03:10:50.323Z,142.87
2019-03-13T03:13:33.025Z,145.82
2019-03-13T03:16:14.951Z,234.27
2019-03-13T03:18:56.344Z,170.20
2019-03-13T03:21:42.025Z,169.63
2019-03-13T03:24:24.035Z,150.50
2019-03-13T03:27:10.391Z,133.47
2019-03-13T03:29:58.963Z,124.33
2019-03-13T03:32:42.367Z,128.80
2019-03-13T03:35:28.799Z,124.70
2019-03-13T03:38:11.982Z,150.57
2019-03-13T03:40:57.317Z,160.30
2019-03-13T03:43:45.218Z,174.32
2019-03-13T03:46:32.281Z,147.60
2019-03-13T03:49:26.532Z,144.50
2019-03-13T03:52:04.977Z,131.10
2019-03-13T03:54:50.232Z,167.80
2019-03-13T03:57:31.685Z,218.10
2019-03-13T04:00:12.542Z,223.03
2019-03-13T04:02:56.325Z,179.63
2019-03-13T04:05:46.523Z,174.40
2019-03-13T04:08:37.447Z,208.40
2019-03-13T04:11:16.949Z,229.37
2019-03-13T04:14:01.957Z,252.50
2019-03-13T04:16:46.919Z,190.18
2019-03-13T04:19:33.076Z,176.40
2019-03-13T04:22:20.780Z,207.52
2019-03-13T04:25:10.648Z,314.63
2019-03-13T04:28:04.737Z,401.30
2019-03-13T04:30:54.739Z,355.23
2019-03-13T04:33:47.858Z,262.50
2019-03-13T04:36:33.210Z,203.50
2019-03-13T04:39:28.498Z,175.60
2019-03-13T04:42:23.982Z,268.70
2019-03-13T04:45:09.494Z,246.00
2019-03-13T04:48:04.703Z,153.67
2019-03-13T04:50:51.055Z,168.07
2019-03-13T04:53:44.677Z,223.67
2019-03-13T04:56:32.218Z,244.77
2019-03-13T04:59:16.330Z,165.90
2019-03-13T05:02:04.639Z,184.07
2019-03-13T05:04:58.140Z,171.83
2019-03-13T05:07:45.189Z,222.13
2019-03-13T05:10:35.177Z,236.93
2019-03-13T05:13:22.036Z,219.97
2019-03-13T05:16:27.622Z,222.53
2019-03-13T05:19:29.747Z,165.70
2019-03-13T05:22:13.243Z,153.83
2019-03-13T05:25:01.352Z,144.70
2019-03-13T05:27:53.357Z,159.13
2019-03-13T05:30:57.021Z,141.70
2019-03-13T05:33:47.508Z,151.87
2019-03-13T05:36:34.059Z,154.20
2019-03-13T05:39:26.443Z,145.23
2019-03-13T05:42:17.539Z,163.77
2019-03-13T05:45:12.233Z,154.57
2019-03-13T05:48:07.572Z,195.70
2019-03-13T05:50:58.910Z,128.67
2019-03-13T05:53:54.167Z,137.77
2019-03-13T05:56:40.679Z,142.43
2019-03-13T05:59:27.870Z,133.00
2019-03-13T06:02:19.759Z,139.97
2019-03-13T06:05:18.771Z,149.23
2019-03-13T06:08:19.409Z,142.00
2019-03-13T06:11:06.506Z,126.12
2019-03-13T06:13:50.023Z,116.20
2019-03-13T06:16:39.452Z,118.77
2019-03-13T06:19:21.481Z,129.93
2019-03-13T06:22:11.157Z,123.23
2019-03-13T06:24:56.330Z,119.53
2019-03-13T06:27:58.522Z,109.90
2019-03-13T06:30:44.222Z,115.23
2019-03-13T06:33:25.235Z,117.20
2019-03-13T06:36:13.204Z,133.97
2019-03-13T06:38:57.226Z,130.27
2019-03-13T06:42:00.401Z,130.90
2019-03-13T06:44:50.864Z,128.40
2019-03-13T06:47:37.910Z,149.00
2019-03-13T06:50:26.171Z,145.60
2019-03-13T06:53:29.760Z,127.47
2019-03-13T06:56:12.007Z,123.00
2019-03-13T06:59:15.894Z,111.47
2019-03-13T07:02:31.410Z,125.23
2019-03-13T07:05:37.205Z,128.03
2019-03-13T07:08:38.051Z,140.23
2019-03-13T07:11:44.196Z,124.47
2019-03-13T07:14:48.638Z,126.50
2019-03-13T07:17:45.608Z,128.03
2019-03-13T07:20:59.962Z,126.07
2019-03-13T07:24:04.405Z,123.17
2019-03-13T07:27:31.662Z,129.60
2019-03-13T07:30:32.519Z,122.67
2019-03-13T07:33:35.401Z,133.73
2019-03-13T07:36:31.426Z,153.37
2019-03-13T07:39:47.011Z,159.17
2019-03-13T07:42:56.222Z,124.03
2019-03-13T07:45:59.168Z,120.27
2019-03-13T07:48:57.260Z,114.97
2019-03-13T07:52:02.998Z,113.30
2019-03-13T07:54:55.745Z,114.87
2019-03-13T07:58:04.034Z,114.90
2019-03-13T08:01:03.487Z,118.67
2019-03-13T08:04:10.134Z,115.97
2019-03-13T08:07:16.181Z,120.23
2019-03-13T08:10:31.960Z,114.50
2019-03-13T08:17:05.248Z,118.40
2019-03-13T08:20:08.989Z,111.27
2019-03-13T08:23:13.619Z,109.70
2019-03-13T08:26:16.849Z,120.97
2019-03-13T08:29:51.121Z,130.27
2019-03-13T08:33:06.310Z,120.53
2019-03-13T08:36:09.979Z,109.97
2019-03-13T08:39:14.409Z,110.00
2019-03-13T08:42:22.148Z,102.67
2019-03-13T08:45:20.109Z,117.80
2019-03-13T08:48:12.002Z,114.03
2019-03-13T08:51:26.248Z,110.43
2019-03-13T08:54:29.472Z,105.63
2019-03-13T08:57:44.884Z,106.47
2019-03-13T09:00:59.276Z,105.87
2019-03-13T09:03:53.772Z,88.87
2019-03-13T09:06:55.873Z,114.63
2019-03-13T09:09:52.376Z,106.40
2019-03-13T09:12:48.436Z,96.10
2019-03-13T09:15:52.178Z,104.90
2019-03-13T09:18:45.365Z,104.07
2019-03-13T09:21:51.133Z,107.10
2019-03-13T09:25:10.391Z,100.50
2019-03-13T09:28:01.302Z,94.73
2019-03-13T09:30:54.854Z,101.33
2019-03-13T09:33:50.345Z,105.70
2019-03-13T09:36:55.429Z,87.73
2019-03-13T09:43:10.972Z,93.40
2019-03-13T09:46:24.577Z,105.70
2019-03-13T09:49:59.046Z,140.23
2019-03-13T09:56:06.231Z,94.90
2019-03-13T09:59:10.796Z,91.90
2019-03-13T10:02:24.926Z,106.33
2019-03-13T10:05:26.931Z,97.30
2019-03-13T10:08:26.718Z,83.63
2019-03-13T10:11:31.647Z,101.17
2019-03-13T10:14:26.821Z,84.67
2019-03-13T10:17:16.046Z,99.17
2019-03-13T10:20:28.382Z,97.03
2019-03-13T10:23:31.008Z,86.90
2019-03-13T10:26:29.211Z,85.50
2019-03-13T10:29:34.988Z,90.07
2019-03-13T10:32:37.560Z,88.90
2019-03-13T10:35:25.566Z,95.57
2019-03-13T10:38:45.778Z,90.50
2019-03-13T10:41:44.111Z,90.37
2019-03-13T10:44:42.552Z,94.97
2019-03-13T10:47:57.014Z,93.00
2019-03-13T10:50:56.972Z,100.03
2019-03-13T10:54:07.371Z,105.67
2019-03-13T10:57:16.155Z,83.20
2019-03-13T11:00:11.640Z,74.47
2019-03-13T11:03:18.312Z,82.53
2019-03-13T11:06:39.746Z,243.47
2019-03-13T11:09:35.555Z,181.87
2019-03-13T11:12:43.278Z,111.13
2019-03-13T11:15:49.902Z,68.03
2019-03-13T11:18:54.659Z,84.75
2019-03-13T11:21:53.619Z,61.30
2019-03-13T11:25:10.370Z,73.83
2019-03-13T11:28:21.325Z,96.53
2019-03-13T11:31:23.425Z,71.60
2019-03-13T11:34:27.281Z,76.93
2019-03-13T11:37:52.906Z,52.30
2019-03-13T11:45:13.151Z,104.20
2019-03-13T11:48:13.707Z,107.45
2019-03-13T11:51:21.387Z,100.33
2019-03-13T11:54:31.548Z,65.33
2019-03-13T11:57:42.393Z,100.42
2019-03-13T12:00:45.195Z,67.40
2019-03-13T12:03:49.542Z,66.83
2019-03-13T12:10:08.555Z,74.17
2019-03-13T12:13:20.329Z,63.80
2019-03-13T12:16:34.371Z,93.37
2019-03-13T12:19:44.060Z,87.23
2019-03-13T12:22:48.231Z,55.43
2019-03-13T12:25:46.964Z,69.83
2019-03-13T12:28:56.146Z,52.70
2019-03-13T12:32:14.856Z,57.43
2019-03-13T12:35:20.715Z,51.87
2019-03-13T12:38:34.394Z,55.67
2019-03-13T12:41:38.579Z,47.87
2019-03-13T12:44:56.353Z,46.57
2019-03-13T12:48:01.497Z,42.40
2019-03-13T12:51:25.754Z,124.73
2019-03-13T12:54:41.362Z,196.30
2019-03-13T12:58:18.501Z,248.90
2019-03-13T13:01:28.358Z,75.60
2019-03-13T13:04:31.916Z,97.70
2019-03-13T13:07:53.434Z,45.92
2019-03-13T13:11:09.750Z,42.83
2019-03-13T13:14:44.981Z,44.60
2019-03-13T13:17:56.782Z,30.73
2019-03-13T13:21:03.621Z,47.83
2019-03-13T13:23:58.799Z,43.23
2019-03-13T13:26:58.603Z,27.27
2019-03-13T13:29:51.537Z,24.57
2019-03-13T13:32:49.673Z,24.03
2019-03-13T13:35:50.646Z,19.33
2019-03-13T13:39:19.166Z,21.80
2019-03-13T13:42:20.690Z,24.97
2019-03-13T13:45:18.282Z,23.98
2019-03-13T13:48:20.937Z,18.20
2019-03-13T13:51:28.898Z,14.25
2019-03-13T13:54:47.923Z,19.00
2019-03-13T13:58:07.230Z,22.00
2019-03-13T14:01:01.234Z,14.20
2019-03-13T14:04:02.247Z,19.70
2019-03-13T14:07:20.298Z,12.77
2019-03-13T14:10:11.608Z,22.67
2019-03-13T14:13:15.773Z,12.93
2019-03-13T14:16:11.153Z,14.40
2019-03-13T14:19:27.932Z,14.40
2019-03-13T14:22:35.794Z,11.97
2019-03-13T14:25:29.303Z,25.13
2019-03-13T14:28:54.476Z,30.27
2019-03-13T14:31:46.613Z,21.48
2019-03-13T14:34:57.085Z,18.43
2019-03-13T14:38:01.408Z,47.80
2019-03-13T14:40:58.070Z,34.13
2019-03-13T14:44:07.281Z,21.27
2019-03-13T14:47:39.082Z,15.93
2019-03-13T14:53:53.989Z,13.70
2019-03-13T14:56:58.656Z,18.47
2019-03-13T15:00:34.519Z,18.10
2019-03-13T15:03:52.552Z,17.13
2019-03-13T15:07:03.402Z,16.82
2019-03-13T15:10:17.995Z,22.83
2019-03-13T15:13:26.739Z,20.10
2019-03-13T15:16:41.832Z,18.40
2019-03-13T15:19:57.963Z,16.43
2019-03-13T15:23:15.989Z,21.33
2019-03-13T15:26:29.840Z,16.33
2019-03-13T15:29:33.993Z,12.77
2019-03-13T15:32:35.048Z,13.57
2019-03-13T15:35:56.795Z,19.73
2019-03-13T15:39:44.095Z,16.40
2019-03-13T15:43:12.723Z,13.80
2019-03-13T15:46:36.247Z,18.80
2019-03-13T15:49:30.006Z,16.20
2019-03-13T15:53:05.657Z,16.77
2019-03-13T15:56:31.761Z,18.07
2019-03-13T15:59:47.013Z,16.03
2019-03-13T16:02:50.667Z,21.40
2019-03-13T16:05:55.822Z,20.40
2019-03-13T16:08:49.770Z,18.97
2019-03-13T16:11:58.181Z,19.27
2019-03-13T16:14:52.676Z,17.80
2019-03-13T16:18:09.774Z,17.07
2019-03-13T16:21:12.116Z,12.73
2019-03-13T16:24:17.974Z,15.57
2019-03-13T16:27:17.139Z,22.57
2019-03-13T16:30:33.345Z,15.10
2019-03-13T16:33:27.918Z,21.10
2019-03-13T16:36:30.541Z,24.40
2019-03-13T16:39:34.530Z,23.00
2019-03-13T16:42:23.542Z,24.40
2019-03-13T16:45:11.249Z,23.27
2019-03-13T16:47:51.714Z,28.27
2019-03-13T16:50:39.087Z,21.77
2019-03-13T16:53:19.898Z,19.27
2019-03-13T16:56:19.507Z,22.70
2019-03-13T16:59:08.904Z,18.17
2019-03-13T17:02:02.480Z,25.10
2019-03-13T17:04:47.702Z,24.13
2019-03-13T17:07:28.436Z,22.67
2019-03-13T17:10:13.690Z,31.53
2019-03-13T17:13:08.551Z,28.17
2019-03-13T17:15:52.130Z,32.33
2019-03-13T17:18:42.296Z,21.00
2019-03-13T17:21:25.859Z,18.20
2019-03-13T17:24:11.612Z,20.90
2019-03-13T17:27:02.698Z,21.13
2019-03-13T17:29:47.417Z,19.90
2019-03-13T17:32:33.580Z,18.73
2019-03-13T17:35:18.052Z,16.30
2019-03-13T17:38:14.269Z,23.70
2019-03-13T17:41:05.514Z,17.67
2019-03-13T17:43:56.091Z,18.93
2019-03-13T17:46:51.748Z,18.20
2019-03-13T17:49:40.893Z,22.98
2019-03-13T17:55:26.510Z,43.23
2019-03-13T17:58:09.189Z,32.80
2019-03-13T18:00:58.762Z,22.33
2019-03-13T18:03:44.053Z,20.30
2019-03-13T18:06:28.642Z,17.17
2019-03-13T18:12:13.138Z,20.00
2019-03-13T18:14:55.531Z,21.77
2019-03-13T18:17:49.350Z,26.40
2019-03-13T18:20:34.767Z,20.60
2019-03-13T18:23:20.848Z,18.73
2019-03-13T18:25:59.574Z,20.43
2019-03-13T18:28:37.933Z,17.10
2019-03-13T18:31:20.674Z,19.00
2019-03-13T18:34:10.458Z,24.67
2019-03-13T18:37:00.352Z,22.20
2019-03-13T18:39:44.234Z,17.57
2019-03-13T18:42:32.676Z,24.63
2019-03-13T18:45:14.515Z,21.67
2019-03-13T18:47:54.726Z,19.63
2019-03-13T18:50:46.136Z,26.67
2019-03-13T18:53:25.464Z,21.30
2019-03-13T18:56:03.776Z,22.20
2019-03-13T18:58:45.404Z,29.93
2019-03-13T19:01:31.955Z,20.70
2019-03-13T19:04:15.739Z,20.20
2019-03-13T19:07:00.152Z,15.83
2019-03-13T19:09:39.892Z,17.53
2019-03-13T19:12:28.403Z,15.83
2019-03-13T19:15:07.476Z,21.20
2019-03-13T19:17:52.855Z,16.10
2019-03-13T19:20:33.553Z,18.25
2019-03-13T19:23:17.681Z,21.90
2019-03-13T19:26:05.021Z,18.37
2019-03-13T19:28:51.515Z,19.90
2019-03-13T19:31:35.500Z,19.53
2019-03-13T19:34:19.607Z,24.87
2019-03-13T19:37:02.072Z,16.77
2019-03-13T19:39:43.327Z,18.47
2019-03-13T19:42:27.561Z,19.73
2019-03-13T19:45:10.775Z,15.80
2019-03-13T19:47:49.877Z,22.27
2019-03-13T19:50:30.545Z,17.53
2019-03-13T19:53:10.969Z,18.63
2019-03-13T19:55:54.051Z,18.70
2019-03-13T19:58:39.509Z,17.67
2019-03-13T20:01:24.364Z,18.02
2019-03-13T20:04:07.561Z,20.80
2019-03-13T20:06:48.506Z,24.03
2019-03-13T20:09:30.633Z,21.37
2019-03-13T20:12:13.999Z,18.50
2019-03-13T20:14:55.479Z,24.77
2019-03-13T20:17:37.631Z,21.30
2019-03-13T20:20:23.121Z,25.70
2019-03-13T20:23:07.205Z,22.73
2019-03-13T20:25:50.396Z,20.33
2019-03-13T20:28:30.253Z,22.43
2019-03-13T20:31:09.868Z,26.23
2019-03-13T20:33:53.793Z,23.67
2019-03-13T20:36:33.982Z,22.07
2019-03-13T20:39:13.626Z,26.47
2019-03-13T20:41:55.897Z,23.13
2019-03-13T20:44:39.683Z,26.82
2019-03-13T20:47:25.913Z,24.93
2019-03-13T20:50:13.975Z,29.93
2019-03-13T20:52:56.116Z,21.03
2019-03-13T20:55:38.767Z,21.47
2019-03-13T20:58:19.433Z,33.10
2019-03-13T21:01:02.825Z,30.43
2019-03-13T21:03:46.737Z,25.13
2019-03-13T21:06:29.571Z,24.10
2019-03-13T21:09:14.827Z,23.90
2019-03-13T21:11:55.251Z,18.77
2019-03-13T21:14:38.600Z,27.63
2019-03-13T21:17:18.667Z,30.07
2019-03-13T21:20:02.496Z,25.83
2019-03-13T21:22:42.728Z,35.63
2019-03-13T21:25:22.096Z,32.07
2019-03-13T21:28:02.584Z,29.75
2019-03-13T21:30:47.977Z,31.23
2019-03-13T21:33:28.918Z,25.57
2019-03-13T21:36:10.083Z,30.27
2019-03-13T21:38:57.989Z,31.77
2019-03-13T21:41:39.689Z,33.37
2019-03-13T21:44:22.792Z,26.87
2019-03-13T21:47:05.157Z,28.00
2019-03-13T21:49:47.894Z,28.40
2019-03-13T21:52:30.657Z,30.53
2019-03-13T21:55:08.778Z,28.23
2019-03-13T21:57:52.263Z,24.23
2019-03-13T22:00:32.041Z,34.90
2019-03-13T22:03:11.748Z,31.53
2019-03-13T22:05:54.398Z,26.87
2019-03-13T22:08:35.628Z,27.97
2019-03-13T22:11:18.877Z,28.30
2019-03-13T22:13:59.381Z,30.27
2019-03-13T22:16:40.023Z,32.47
2019-03-13T22:19:21.563Z,23.53
2019-03-13T22:22:05.450Z,26.03
2019-03-13T22:24:51.109Z,24.00
2019-03-13T22:27:32.594Z,26.63
2019-03-13T22:30:20.681Z,23.70
2019-03-13T22:33:00.699Z,27.53
2019-03-13T22:35:46.668Z,23.60
2019-03-13T22:38:28.203Z,24.40
2019-03-13T22:41:10.782Z,28.00
2019-03-13T22:43:56.612Z,23.77
2019-03-13T22:46:39.392Z,29.13
2019-03-13T22:49:23.217Z,26.17
2019-03-13T22:52:04.988Z,32.28
2019-03-13T22:54:48.563Z,25.67
2019-03-13T22:57:30.983Z,30.90
2019-03-13T23:00:12.637Z,28.57
2019-03-13T23:02:59.018Z,27.80
2019-03-13T23:05:45.150Z,29.20
2019-03-13T23:08:30.005Z,28.60
2019-03-13T23:11:09.414Z,32.00
2019-03-13T23:13:50.485Z,33.87
2019-03-13T23:16:29.855Z,35.80
2019-03-13T23:19:18.612Z,38.17
2019-03-13T23:22:00.988Z,37.97
2019-03-13T23:24:44.981Z,42.60
2019-03-13T23:27:26.657Z,34.67
2019-03-13T23:30:07.883Z,37.73
2019-03-13T23:32:54.988Z,39.60
2019-03-13T23:35:42.027Z,54.20
2019-03-13T23:38:24.670Z,43.60
2019-03-13T23:41:07.542Z,45.47
2019-03-13T23:43:53.681Z,127.17
2019-03-13T23:46:43.382Z,126.50
2019-03-13T23:49:22.131Z,76.10
2019-03-13T23:52:05.298Z,44.53
2019-03-13T23:54:44.883Z,52.27
2019-03-13T23:57:29.377Z,48.87
